Ewing Township, New Jersey
Current Conditions -  °F | °C
As of 8:53 PM on Saturday 22 Nov 2014 (Local Time) from KTTN Reporting Station
Overcast Overcast  
Wind Chill: 38°   Ceiling: 7000
Heat Index: 43°   Visibility: 10mi
Dew Point: 19°   Wind: 9mph
Humidity: 38%   Direction: 240°WSW
Pressure: 30.25"   Gusts: NA
Location:  40.272°N, 74.8191°W
Report Text: KTTN 230153Z 24008KT 10SM BKN070 OVC110 06/M07 A3025 RMK AO2 SLP238 T00611072
Loading
Personal Weather Stations






























Interactive Weather Map New forecast layout! Learn more

10-Day Weather Forecast

Advertisements
Track Severe Weather on mobile